Time;durP1;ratioP1;P1;durP2;ratioP2;P2;SDS_P1;SDS_P2;PMS_P1;PMS_P2;Temp;Humidity;BMP_temperature;BMP_pressure;BME280_temperature;BME280_humidity;BME280_pressure;Samples;Min_cycle;Max_cycle;Signal;HPM_P1;HPM_P2
2023/12/04 00:01:52;;;;;;;1.70;1.60;;;0.80;98.20;;;;;;5043805;28;20636;-85
2023/12/04 00:04:19;;;;;;;1.60;1.50;;;0.90;98.20;;;;;;5055280;28;20476;-83
2023/12/04 00:06:46;;;;;;;1.70;1.50;;;0.90;98.20;;;;;;5045181;28;20486;-84
2023/12/04 00:09:14;;;;;;;1.70;1.60;;;0.90;98.20;;;;;;5053975;28;20510;-84
2023/12/04 00:11:41;;;;;;;1.60;1.50;;;0.90;98.20;;;;;;5051340;28;20481;-85
2023/12/04 00:14:07;;;;;;;1.70;1.60;;;0.90;98.20;;;;;;5062685;28;20458;-83
2023/12/04 00:16:35;;;;;;;4.00;3.70;;;0.90;98.20;;;;;;5044422;28;20561;-83
2023/12/04 00:19:02;;;;;;;1.87;1.77;;;0.90;98.20;;;;;;5054706;28;20976;-85
2023/12/04 00:21:28;;;;;;;1.70;1.60;;;0.90;98.20;;;;;;5050411;28;20478;-85
2023/12/04 00:23:55;;;;;;;1.70;1.60;;;0.90;98.20;;;;;;5056114;28;20485;-83
2023/12/04 00:26:23;;;;;;;1.60;1.50;;;0.90;98.20;;;;;;5048937;28;20600;-85
2023/12/04 00:28:50;;;;;;;1.70;1.60;;;0.90;98.20;;;;;;5064680;28;20573;-86
2023/12/04 00:31:17;;;;;;;1.63;1.50;;;0.90;98.20;;;;;;5043552;28;20488;-85
2023/12/04 00:33:44;;;;;;;2.00;1.90;;;0.90;98.20;;;;;;5054398;28;21023;-85
2023/12/04 00:36:11;;;;;;;1.90;1.70;;;0.90;98.20;;;;;;5045081;28;20547;-85
2023/12/04 00:38:38;;;;;;;1.80;1.70;;;0.90;98.20;;;;;;5060521;28;20471;-84
2023/12/04 00:41:06;;;;;;;2.23;2.03;;;0.90;98.20;;;;;;5044858;28;20558;-85
2023/12/04 00:43:34;;;;;;;1.70;1.50;;;0.80;98.20;;;;;;5061002;28;20461;-83
2023/12/04 00:46:01;;;;;;;3.60;3.40;;;0.80;98.20;;;;;;5043155;28;20485;-84
2023/12/04 00:48:27;;;;;;;1.60;1.50;;;0.80;98.20;;;;;;5053574;28;21008;-85
2023/12/04 00:50:55;;;;;;;1.80;1.70;;;0.80;98.20;;;;;;5045767;28;20463;-83
2023/12/04 00:53:22;;;;;;;1.73;1.63;;;0.80;98.20;;;;;;5060428;28;20465;-84
2023/12/04 00:55:49;;;;;;;1.67;1.50;;;0.90;98.20;;;;;;5038871;28;20562;-85
2023/12/04 00:58:15;;;;;;;1.60;1.50;;;0.80;98.20;;;;;;5060025;28;20656;-83
2023/12/04 01:00:43;;;;;;;1.63;1.50;;;0.80;98.20;;;;;;5056080;28;20458;-85
2023/12/04 01:03:10;;;;;;;1.67;1.50;;;0.90;98.20;;;;;;5050617;28;21055;-85
2023/12/04 01:05:37;;;;;;;1.63;1.50;;;0.80;98.20;;;;;;5053935;28;20842;-84
2023/12/04 01:08:04;;;;;;;1.60;1.50;;;0.80;98.20;;;;;;5056836;28;20492;-85
2023/12/04 01:10:31;;;;;;;4.90;4.60;;;0.80;98.20;;;;;;5057432;28;20473;-82
2023/12/04 01:12:58;;;;;;;1.63;1.50;;;0.80;98.20;;;;;;5047853;28;20486;-84
2023/12/04 01:15:24;;;;;;;1.60;1.50;;;0.80;98.20;;;;;;5057718;28;20450;-84
2023/12/04 01:17:52;;;;;;;1.70;1.60;;;0.80;98.20;;;;;;5044635;28;20490;-84
2023/12/04 01:20:19;;;;;;;1.63;1.50;;;0.80;98.20;;;;;;5057893;28;20465;-83
2023/12/04 01:22:46;;;;;;;1.80;1.70;;;0.80;98.20;;;;;;5063984;28;20500;-81
2023/12/04 01:25:13;;;;;;;3.20;2.90;;;0.80;98.20;;;;;;5057454;28;20546;-84
2023/12/04 01:27:39;;;;;;;1.70;1.53;;;0.80;98.20;;;;;;5045266;28;20489;-86
2023/12/04 01:30:08;;;;;;;1.67;1.50;;;0.80;98.20;;;;;;5058433;28;20462;-83
2023/12/04 01:32:35;;;;;;;1.70;1.60;;;0.80;98.20;;;;;;5057230;28;20533;-85
2023/12/04 01:35:04;;;;;;;1.70;1.60;;;0.80;98.20;;;;;;5056035;28;20468;-84
2023/12/04 01:37:31;;;;;;;1.70;1.60;;;0.80;98.20;;;;;;5046243;28;20478;-85
2023/12/04 01:39:58;;;;;;;2.53;2.33;;;0.80;98.20;;;;;;5057552;28;20458;-84
2023/12/04 01:42:25;;;;;;;1.80;1.70;;;0.80;98.20;;;;;;5057676;28;20556;-86
2023/12/04 01:44:52;;;;;;;1.70;1.60;;;0.80;98.20;;;;;;5059349;28;20458;-85
2023/12/04 01:47:21;;;;;;;1.60;1.50;;;0.80;98.20;;;;;;5045189;28;20888;-81
2023/12/04 01:49:48;;;;;;;1.67;1.50;;;0.80;98.20;;;;;;5057740;28;20478;-83
2023/12/04 01:52:16;;;;;;;1.63;1.50;;;0.80;98.20;;;;;;5049600;28;20478;-82
2023/12/04 01:54:43;;;;;;;1.63;1.50;;;0.80;98.20;;;;;;5061655;28;20454;-83
2023/12/04 01:57:11;;;;;;;1.70;1.60;;;0.80;98.20;;;;;;5044069;28;20508;-84
2023/12/04 01:59:38;;;;;;;1.60;1.50;;;0.80;98.20;;;;;;5056194;28;20482;-84
2023/12/04 02:02:06;;;;;;;1.60;1.50;;;0.80;98.20;;;;;;5053481;28;20493;-82
2023/12/04 02:04:33;;;;;;;1.63;1.50;;;0.80;98.20;;;;;;5061264;28;20845;-82
2023/12/04 02:07:00;;;;;;;1.70;1.60;;;0.80;98.20;;;;;;5043508;28;20497;-83
2023/12/04 02:09:29;;;;;;;1.63;1.50;;;0.80;98.20;;;;;;5056135;28;20559;-82
2023/12/04 02:11:56;;;;;;;1.70;1.50;;;0.80;98.20;;;;;;5053533;28;20501;-81
2023/12/04 02:14:23;;;;;;;1.63;1.50;;;0.80;98.20;;;;;;5060483;28;20631;-83
2023/12/04 02:16:51;;;;;;;1.60;1.50;;;0.80;98.20;;;;;;5050312;28;20496;-81
2023/12/04 02:19:18;;;;;;;1.63;1.50;;;0.80;98.20;;;;;;5061622;28;20492;-83
2023/12/04 02:21:44;;;;;;;1.63;1.50;;;0.80;98.20;;;;;;5051326;28;20495;-85
2023/12/04 02:24:13;;;;;;;1.60;1.50;;;0.80;98.20;;;;;;5058911;28;20458;-83
2023/12/04 02:26:45;;;;;;;1.70;1.50;;;0.80;98.20;;;;;;5042798;28;20486;-82
2023/12/04 02:29:20;;;;;;;4.00;3.30;;;0.80;98.20;;;;;;5045629;28;20479;-81
2023/12/04 02:31:48;;;;;;;1.70;1.60;;;0.80;98.20;;;;;;5051514;28;20922;-84
2023/12/04 02:34:17;;;;;;;1.80;1.70;;;0.80;98.20;;;;;;5061268;28;20459;-83
2023/12/04 02:36:45;;;;;;;1.60;1.50;;;0.80;98.20;;;;;;5043625;28;20483;-82
2023/12/04 02:39:14;;;;;;;2.23;2.03;;;0.80;98.20;;;;;;5051870;28;20492;-84
2023/12/04 02:41:40;;;;;;;1.60;1.50;;;0.80;98.20;;;;;;5051954;28;20490;-84
2023/12/04 02:44:07;;;;;;;1.63;1.53;;;0.80;98.20;;;;;;5062397;28;20688;-83
2023/12/04 02:46:34;;;;;;;1.70;1.60;;;0.80;98.20;;;;;;5043486;28;20596;-83
2023/12/04 02:49:01;;;;;;;1.70;1.50;;;0.80;98.20;;;;;;5048063;28;20494;-83
2023/12/04 02:51:27;;;;;;;1.60;1.50;;;0.80;98.20;;;;;;5046950;28;20485;-84
2023/12/04 02:53:54;;;;;;;1.70;1.60;;;0.80;98.20;;;;;;5062615;28;20465;-82
2023/12/04 02:56:22;;;;;;;1.70;1.50;;;0.80;98.20;;;;;;5046659;28;20946;-80
2023/12/04 02:58:49;;;;;;;1.70;1.60;;;0.80;98.20;;;;;;5065901;28;20475;-81
2023/12/04 03:01:16;;;;;;;1.63;1.50;;;0.80;98.20;;;;;;5048036;28;20864;-83
2023/12/04 03:03:42;;;;;;;1.70;1.50;;;0.80;98.20;;;;;;5061862;28;20473;-83
2023/12/04 03:06:09;;;;;;;1.60;1.50;;;0.80;98.20;;;;;;5044838;28;20805;-83
2023/12/04 03:08:36;;;;;;;1.63;1.50;;;0.80;98.20;;;;;;5065705;28;20478;-82
2023/12/04 03:11:03;;;;;;;1.60;1.50;;;0.80;98.20;;;;;;5045124;28;20458;-82
2023/12/04 03:13:32;;;;;;;2.17;2.00;;;0.80;98.20;;;;;;5063009;28;20462;-82
2023/12/04 03:15:59;;;;;;;1.67;1.53;;;0.80;98.20;;;;;;5041564;28;20458;-82
2023/12/04 03:18:25;;;;;;;1.70;1.60;;;0.80;98.20;;;;;;5052287;28;20493;-84
2023/12/04 03:20:52;;;;;;;1.70;1.50;;;0.80;98.20;;;;;;5045837;28;20450;-81
2023/12/04 03:23:19;;;;;;;1.70;1.60;;;0.80;98.20;;;;;;5068803;28;20488;-84
2023/12/04 03:25:46;;;;;;;1.60;1.50;;;0.80;98.20;;;;;;5053125;28;20557;-82
2023/12/04 03:28:15;;;;;;;1.63;1.50;;;0.80;98.20;;;;;;5042610;28;20474;-82
2023/12/04 03:30:45;;;;;;;1.60;1.50;;;0.80;98.20;;;;;;5055117;28;20469;-81
2023/12/04 03:33:12;;;;;;;1.63;1.50;;;0.80;98.20;;;;;;5041699;28;20492;-84
2023/12/04 03:35:38;;;;;;;2.33;2.13;;;0.80;98.20;;;;;;5054340;28;20458;-84
2023/12/04 03:38:05;;;;;;;1.70;1.60;;;0.90;98.20;;;;;;5058524;28;20500;-84
2023/12/04 03:40:32;;;;;;;1.60;1.50;;;0.90;98.20;;;;;;5048022;28;20468;-83
2023/12/04 03:42:59;;;;;;;1.60;1.50;;;0.90;98.20;;;;;;5046966;28;20480;-83
2023/12/04 03:45:26;;;;;;;1.80;1.70;;;0.90;98.20;;;;;;5048217;28;20878;-83
2023/12/04 03:47:54;;;;;;;1.70;1.60;;;0.90;98.20;;;;;;5041592;28;20573;-84
2023/12/04 03:50:21;;;;;;;2.07;1.87;;;0.90;98.20;;;;;;5054195;28;20454;-84
2023/12/04 03:52:48;;;;;;;1.70;1.60;;;0.90;98.20;;;;;;5056056;28;20919;-84
2023/12/04 03:55:15;;;;;;;1.60;1.43;;;0.90;98.20;;;;;;5053391;28;20986;-82
2023/12/04 03:57:42;;;;;;;1.70;1.60;;;0.90;98.20;;;;;;5039019;28;20484;-84
2023/12/04 04:00:11;;;;;;;1.70;1.60;;;0.80;98.20;;;;;;5053498;28;20545;-82
2023/12/04 04:02:40;;;;;;;2.27;2.07;;;0.90;98.20;;;;;;5057406;28;20493;-84
2023/12/04 04:05:08;;;;;;;2.47;2.27;;;0.80;98.20;;;;;;5054352;28;20948;-82
2023/12/04 04:07:35;;;;;;;1.70;1.50;;;0.90;98.20;;;;;;5041752;28;20772;-82
2023/12/04 04:10:04;;;;;;;1.60;1.50;;;0.90;98.20;;;;;;5052510;28;20463;-83
2023/12/04 04:12:30;;;;;;;2.07;1.97;;;0.90;98.20;;;;;;5056320;28;20545;-84
2023/12/04 04:14:57;;;;;;;1.60;1.50;;;0.90;98.20;;;;;;5054917;28;20462;-82
2023/12/04 04:17:25;;;;;;;1.60;1.50;;;0.90;98.20;;;;;;5040129;28;20502;-80
2023/12/04 04:19:52;;;;;;;1.60;1.50;;;0.90;98.20;;;;;;5053469;28;20474;-83
2023/12/04 04:22:20;;;;;;;1.60;1.50;;;0.90;98.20;;;;;;5051986;28;21116;-84
2023/12/04 04:24:47;;;;;;;1.70;1.60;;;0.90;98.20;;;;;;5050625;28;20527;-84
2023/12/04 04:27:14;;;;;;;1.67;1.50;;;0.90;98.20;;;;;;5051270;28;20894;-82
2023/12/04 04:29:41;;;;;;;1.70;1.60;;;0.90;98.20;;;;;;5053357;28;20636;-84
2023/12/04 04:32:08;;;;;;;1.70;1.60;;;0.90;98.20;;;;;;5049833;28;20519;-83
2023/12/04 04:34:34;;;;;;;1.70;1.50;;;0.90;98.20;;;;;;5057663;28;20601;-83
2023/12/04 04:37:02;;;;;;;1.63;1.50;;;0.90;98.20;;;;;;5050761;28;20491;-77
2023/12/04 04:39:30;;;;;;;1.63;1.50;;;0.90;98.20;;;;;;5056857;28;20490;-84
2023/12/04 04:41:57;;;;;;;1.60;1.50;;;0.80;98.20;;;;;;5052336;28;21144;-83
2023/12/04 04:44:24;;;;;;;1.70;1.60;;;0.80;98.20;;;;;;5060423;28;20450;-82
2023/12/04 04:46:50;;;;;;;1.67;1.50;;;0.80;98.20;;;;;;5053016;28;20482;-84
2023/12/04 04:51:45;;;;;;;1.63;1.50;;;0.80;98.20;;;;;;5055773;28;20482;-81
2023/12/04 04:54:12;;;;;;;1.70;1.50;;;0.80;98.20;;;;;;5049277;28;20515;-83
2023/12/04 04:56:40;;;;;;;1.63;1.50;;;0.80;98.20;;;;;;5046096;28;20849;-82
2023/12/04 04:59:07;;;;;;;2.67;2.47;;;0.80;98.20;;;;;;5060822;28;20458;-83
2023/12/04 05:01:34;;;;;;;1.60;1.50;;;0.80;98.20;;;;;;5024936;28;20494;-81
2023/12/04 05:04:01;;;;;;;1.70;1.60;;;0.80;98.20;;;;;;5043013;28;20459;-82
2023/12/04 05:06:27;;;;;;;1.63;1.50;;;0.80;98.20;;;;;;5022264;28;20475;-82
2023/12/04 05:08:54;;;;;;;1.80;1.70;;;0.80;98.20;;;;;;5022126;28;20467;-81
2023/12/04 05:11:21;;;;;;;2.23;2.03;;;0.80;98.20;;;;;;5013926;28;20651;-82
2023/12/04 05:13:49;;;;;;;1.70;1.60;;;0.80;98.20;;;;;;5022875;28;20533;-83
2023/12/04 05:16:16;;;;;;;3.50;3.20;;;0.80;98.20;;;;;;5026982;28;20478;-81
2023/12/04 05:18:43;;;;;;;1.70;1.60;;;0.80;98.20;;;;;;5048090;28;20463;-82
2023/12/04 05:21:10;;;;;;;2.37;2.17;;;0.80;98.20;;;;;;5022030;28;20494;-81
2023/12/04 05:23:37;;;;;;;1.67;1.50;;;0.80;98.20;;;;;;5042643;28;20464;-82
2023/12/04 05:26:05;;;;;;;1.70;1.50;;;0.80;98.20;;;;;;5013807;28;20468;-82
2023/12/04 05:28:32;;;;;;;1.60;1.50;;;0.80;98.20;;;;;;5043249;28;20483;-82
2023/12/04 05:31:00;;;;;;;1.70;1.60;;;0.80;98.20;;;;;;5022033;28;20486;-83
2023/12/04 05:33:27;;;;;;;1.70;1.60;;;0.80;98.20;;;;;;5049755;28;20466;-82
2023/12/04 05:35:54;;;;;;;3.80;3.60;;;0.80;98.20;;;;;;5014139;28;20474;-80
2023/12/04 05:38:20;;;;;;;1.60;1.50;;;0.80;98.20;;;;;;5085802;28;20472;-81
2023/12/04 05:40:50;;;;;;;1.63;1.50;;;0.80;98.20;;;;;;5061916;28;20492;-84
2023/12/04 05:43:16;;;;;;;1.67;1.50;;;0.80;98.20;;;;;;5084438;28;20507;-81
2023/12/04 05:45:43;;;;;;;1.60;1.50;;;0.80;98.20;;;;;;5072366;28;20472;-79
2023/12/04 05:48:11;;;;;;;1.80;1.70;;;0.80;98.20;;;;;;5073214;27;20477;-79
2023/12/04 05:50:38;;;;;;;1.67;1.57;;;0.80;98.20;;;;;;5061527;28;20492;-81
2023/12/04 05:53:07;;;;;;;1.70;1.60;;;0.80;98.20;;;;;;5078045;28;20472;-81
2023/12/04 05:55:33;;;;;;;1.70;1.60;;;0.80;98.20;;;;;;5068557;28;20893;-81
2023/12/04 05:58:00;;;;;;;1.67;1.50;;;0.80;98.20;;;;;;5075396;28;20953;-81
2023/12/04 06:00:27;;;;;;;1.70;1.60;;;0.80;98.20;;;;;;5069519;28;20512;-82
2023/12/04 06:02:54;;;;;;;1.60;1.50;;;0.80;98.20;;;;;;5077457;28;20874;-81
2023/12/04 06:05:23;;;;;;;1.70;1.60;;;0.80;98.20;;;;;;5072523;28;20461;-82
2023/12/04 06:07:49;;;;;;;3.10;2.90;;;0.80;98.20;;;;;;5075471;28;20480;-81
2023/12/04 06:10:16;;;;;;;1.63;1.50;;;0.80;98.20;;;;;;5070999;28;20502;-80
2023/12/04 06:12:43;;;;;;;5.10;3.93;;;0.70;98.20;;;;;;5076825;28;20477;-80
2023/12/04 06:15:10;;;;;;;1.70;1.60;;;0.80;98.20;;;;;;5069762;28;20974;-81
2023/12/04 06:17:37;;;;;;;1.67;1.50;;;0.80;98.20;;;;;;5072784;28;20480;-81
2023/12/04 06:20:05;;;;;;;2.30;2.13;;;0.80;98.20;;;;;;5069588;28;20477;-80
2023/12/04 06:22:35;;;;;;;1.60;1.50;;;0.80;98.20;;;;;;5074743;28;20492;-80
2023/12/04 06:25:02;;;;;;;3.30;3.10;;;0.80;98.20;;;;;;5071275;28;20461;-81
2023/12/04 06:27:29;;;;;;;1.60;1.50;;;0.80;98.20;;;;;;5072711;28;20790;-81
2023/12/04 06:29:56;;;;;;;1.70;1.60;;;0.70;98.20;;;;;;5074752;28;20489;-79
2023/12/04 06:32:23;;;;;;;1.67;1.50;;;0.70;98.20;;;;;;5073221;28;20576;-81
2023/12/04 06:34:51;;;;;;;1.70;1.60;;;0.70;98.20;;;;;;5072794;28;20564;-80
2023/12/04 06:37:18;;;;;;;1.70;1.50;;;0.70;98.20;;;;;;5072742;28;20518;-81
2023/12/04 06:39:49;;;;;;;2.30;2.10;;;0.70;98.20;;;;;;5077327;28;20963;-80
2023/12/04 06:42:19;;;;;;;1.67;1.50;;;0.70;98.20;;;;;;5071568;28;20480;-79
2023/12/04 06:44:46;;;;;;;1.70;1.60;;;0.70;98.20;;;;;;5072578;28;20462;-80
2023/12/04 06:47:18;;;;;;;1.63;1.50;;;0.70;98.20;;;;;;5068250;28;20480;-80
2023/12/04 06:49:45;;;;;;;1.70;1.60;;;0.70;98.20;;;;;;5076698;28;21437;-79
2023/12/04 06:52:11;;;;;;;1.80;1.70;;;0.70;98.20;;;;;;5070858;28;21102;-79
2023/12/04 06:54:38;;;;;;;1.70;1.60;;;0.70;98.20;;;;;;5073475;28;20457;-80
2023/12/04 06:57:06;;;;;;;1.67;1.50;;;0.70;98.20;;;;;;5066984;28;20491;-79
2023/12/04 06:59:33;;;;;;;1.70;1.60;;;0.70;98.20;;;;;;5073007;28;20509;-80
2023/12/04 07:02:00;;;;;;;1.63;1.50;;;0.70;98.20;;;;;;5070043;28;20481;-81
2023/12/04 07:04:27;;;;;;;1.70;1.60;;;0.70;98.20;;;;;;5074011;28;20474;-79
2023/12/04 07:06:54;;;;;;;1.70;1.60;;;0.70;98.20;;;;;;5065597;28;20485;-79
2023/12/04 07:09:21;;;;;;;1.63;1.50;;;0.70;98.20;;;;;;5072922;28;20466;-80
2023/12/04 07:11:47;;;;;;;1.70;1.50;;;0.70;98.20;;;;;;5066843;28;20483;-81
2023/12/04 07:14:16;;;;;;;1.70;1.60;;;0.70;98.20;;;;;;5077351;28;20465;-79
2023/12/04 07:16:43;;;;;;;1.80;1.70;;;0.70;98.20;;;;;;5067763;28;20538;-80
2023/12/04 07:19:10;;;;;;;1.63;1.50;;;0.70;98.20;;;;;;5078648;28;20932;-78
2023/12/04 07:21:37;;;;;;;1.90;1.80;;;0.70;98.20;;;;;;5067060;28;20478;-78
2023/12/04 07:24:04;;;;;;;1.63;1.50;;;0.70;98.20;;;;;;5079539;28;20468;-79
2023/12/04 07:26:31;;;;;;;6.70;6.30;;;0.70;98.20;;;;;;5063377;28;20476;-79
2023/12/04 07:28:58;;;;;;;1.80;1.70;;;0.70;98.20;;;;;;5077655;28;20547;-79
2023/12/04 07:31:27;;;;;;;1.70;1.60;;;0.70;98.20;;;;;;5062938;28;20857;-80
2023/12/04 07:33:53;;;;;;;1.60;1.50;;;0.70;98.20;;;;;;5078869;28;20940;-79
2023/12/04 07:36:20;;;;;;;2.50;2.30;;;0.70;98.20;;;;;;5060669;28;20528;-79
2023/12/04 07:38:54;;;;;;;1.70;1.60;;;0.80;98.20;;;;;;5081828;28;20464;-77
2023/12/04 07:41:24;;;;;;;1.70;1.53;;;0.80;98.20;;;;;;5060264;28;20468;-79
2023/12/04 07:43:58;;;;;;;1.63;1.50;;;0.80;98.20;;;;;;5079488;28;20457;-78
2023/12/04 07:46:26;;;;;;;1.70;1.60;;;0.90;98.20;;;;;;5061676;28;20483;-79
2023/12/04 07:48:56;;;;;;;1.70;1.60;;;0.90;98.20;;;;;;5077587;28;20583;-77
2023/12/04 07:51:33;;;;;;;1.70;1.60;;;1.00;98.20;;;;;;5061571;28;20476;-77
2023/12/04 07:54:01;;;;;;;5.50;2.83;;;1.00;98.20;;;;;;5076042;28;20987;-80
2023/12/04 07:56:27;;;;;;;1.60;1.50;;;1.10;98.20;;;;;;5063849;28;20466;-78
2023/12/04 07:58:54;;;;;;;1.60;1.50;;;1.10;98.20;;;;;;5079656;28;20457;-79
2023/12/04 08:01:21;;;;;;;1.70;1.60;;;1.10;98.20;;;;;;5061873;28;21109;-81
2023/12/04 08:03:49;;;;;;;1.63;1.50;;;1.20;98.20;;;;;;5082998;28;20461;-78
2023/12/04 08:06:18;;;;;;;1.70;1.60;;;1.20;98.20;;;;;;5059908;28;20522;-78
2023/12/04 08:08:45;;;;;;;1.70;1.50;;;1.20;98.20;;;;;;5080986;28;21077;-79
2023/12/04 08:11:13;;;;;;;1.67;1.50;;;1.30;98.20;;;;;;5058546;28;20476;-78
2023/12/04 08:13:40;;;;;;;1.60;1.47;;;1.30;98.20;;;;;;5079649;28;20469;-79
2023/12/04 08:16:14;;;;;;;1.73;1.63;;;1.30;98.20;;;;;;5060105;28;20493;-78
2023/12/04 08:18:41;;;;;;;1.63;1.50;;;1.30;98.20;;;;;;5077996;28;20470;-78
2023/12/04 08:21:09;;;;;;;1.70;1.60;;;1.30;98.20;;;;;;5057983;28;20697;-79
2023/12/04 08:23:36;;;;;;;1.67;1.53;;;1.30;98.20;;;;;;5077857;28;20942;-78
2023/12/04 08:26:03;;;;;;;1.63;1.50;;;1.30;98.20;;;;;;5054242;28;20453;-79
2023/12/04 08:28:35;;;;;;;1.70;1.57;;;1.30;98.20;;;;;;5079661;28;20705;-78
2023/12/04 08:31:01;;;;;;;1.60;1.43;;;1.30;98.20;;;;;;5058585;28;20489;-77
2023/12/04 08:33:28;;;;;;;2.17;1.97;;;1.30;98.20;;;;;;5077940;28;20568;-78
2023/12/04 08:35:55;;;;;;;1.77;1.67;;;1.30;98.20;;;;;;5056048;27;20460;-78
2023/12/04 08:38:23;;;;;;;1.60;1.50;;;1.30;98.20;;;;;;5078273;28;20454;-78
2023/12/04 08:40:50;;;;;;;1.60;1.50;;;1.40;98.20;;;;;;5055090;28;20485;-78
2023/12/04 08:43:17;;;;;;;1.63;1.50;;;1.30;98.20;;;;;;5076097;28;20465;-78
2023/12/04 08:45:44;;;;;;;1.63;1.50;;;1.30;98.20;;;;;;5063426;28;20476;-77
2023/12/04 08:48:11;;;;;;;1.90;1.80;;;1.30;98.20;;;;;;5062499;28;20478;-76
2023/12/04 08:50:38;;;;;;;1.60;1.50;;;1.30;98.20;;;;;;5063187;28;20513;-77
2023/12/04 08:53:05;;;;;;;2.33;2.13;;;1.30;98.20;;;;;;5071757;28;20477;-76
2023/12/04 08:55:33;;;;;;;1.60;1.50;;;1.30;98.20;;;;;;5066686;28;20461;-78
2023/12/04 08:58:00;;;;;;;1.70;1.60;;;1.30;98.20;;;;;;5067925;28;20477;-77
2023/12/04 09:00:27;;;;;;;1.70;1.60;;;1.30;98.20;;;;;;5063505;28;20617;-77
2023/12/04 09:02:54;;;;;;;2.27;2.07;;;1.30;98.20;;;;;;5067711;28;20492;-76
2023/12/04 09:05:21;;;;;;;1.70;1.50;;;1.30;98.20;;;;;;5061191;28;20544;-76
2023/12/04 09:07:47;;;;;;;1.63;1.50;;;1.30;98.20;;;;;;5072601;28;20476;-75
2023/12/04 09:10:14;;;;;;;1.60;1.50;;;1.30;98.20;;;;;;5063579;28;20485;-76
2023/12/04 09:12:42;;;;;;;1.60;1.40;;;1.30;98.20;;;;;;5070177;28;21010;-76
2023/12/04 09:15:09;;;;;;;1.70;1.50;;;1.30;98.20;;;;;;5062779;28;21025;-76
2023/12/04 09:17:36;;;;;;;1.63;1.50;;;1.30;98.20;;;;;;5070995;27;20485;-76
2023/12/04 09:20:05;;;;;;;2.23;2.03;;;1.40;98.20;;;;;;5066440;28;20693;-76
2023/12/04 09:22:32;;;;;;;1.70;1.60;;;1.40;98.20;;;;;;5067935;28;20579;-76
2023/12/04 09:24:59;;;;;;;1.60;1.50;;;1.40;98.20;;;;;;5067190;28;20840;-75
2023/12/04 09:27:25;;;;;;;1.63;1.50;;;1.40;98.20;;;;;;5069071;27;20495;-76
2023/12/04 09:29:53;;;;;;;1.63;1.40;;;1.40;98.20;;;;;;5070863;28;20894;-76
2023/12/04 09:32:20;;;;;;;1.63;1.50;;;1.40;98.20;;;;;;5069247;28;21002;-76
2023/12/04 09:34:47;;;;;;;1.63;1.50;;;1.40;98.20;;;;;;5071531;28;20471;-75
2023/12/04 09:37:14;;;;;;;1.70;1.60;;;1.40;98.20;;;;;;5072983;28;20476;-76
2023/12/04 09:39:41;;;;;;;1.60;1.50;;;1.40;98.20;;;;;;5073565;28;20496;-77
2023/12/04 09:42:09;;;;;;;1.70;1.60;;;1.40;98.20;;;;;;5071633;28;20475;-76
2023/12/04 09:44:37;;;;;;;1.67;1.50;;;1.50;98.20;;;;;;5071367;28;20604;-77
2023/12/04 09:47:06;;;;;;;1.60;1.50;;;1.50;98.20;;;;;;5068556;28;20658;-76
2023/12/04 09:49:33;;;;;;;1.70;1.60;;;1.50;98.20;;;;;;5076806;28;20496;-77
2023/12/04 09:52:05;;;;;;;1.67;1.53;;;1.50;98.20;;;;;;5069309;28;21005;-76
2023/12/04 09:54:34;;;;;;;1.63;1.50;;;1.50;98.20;;;;;;5074326;28;20495;-76
2023/12/04 09:57:01;;;;;;;1.70;1.50;;;1.60;98.20;;;;;;5071371;28;20476;-76
2023/12/04 09:59:29;;;;;;;1.80;1.70;;;1.60;98.20;;;;;;5073356;28;20458;-76
2023/12/04 10:01:56;;;;;;;1.60;1.50;;;1.60;98.20;;;;;;5068259;28;20588;-76
2023/12/04 10:04:26;;;;;;;1.70;1.60;;;1.60;98.20;;;;;;5074949;28;20489;-77
2023/12/04 10:06:53;;;;;;;3.13;2.93;;;1.60;98.20;;;;;;5056857;28;20969;-77
2023/12/04 10:09:22;;;;;;;1.60;1.50;;;1.60;98.20;;;;;;5070607;28;20485;-77
2023/12/04 10:11:50;;;;;;;1.63;1.50;;;1.60;98.20;;;;;;5069604;28;20518;-77
2023/12/04 10:14:19;;;;;;;6.13;3.57;;;1.70;98.20;;;;;;5077440;28;20994;-77
2023/12/04 10:16:46;;;;;;;1.60;1.50;;;1.70;98.20;;;;;;5070105;28;20462;-78
2023/12/04 10:19:16;;;;;;;1.70;1.60;;;1.70;98.20;;;;;;5071578;28;20453;-78
2023/12/04 10:21:44;;;;;;;1.60;1.40;;;1.70;98.20;;;;;;5065019;27;20559;-77
2023/12/04 10:24:12;;;;;;;1.67;1.50;;;1.70;98.20;;;;;;5076367;28;20840;-78
2023/12/04 10:26:50;;;;;;;1.60;1.50;;;1.70;98.20;;;;;;5064996;28;20511;-78
2023/12/04 10:29:16;;;;;;;1.60;1.43;;;1.70;98.20;;;;;;5075024;28;20495;-78
2023/12/04 10:31:43;;;;;;;1.60;1.43;;;1.70;98.20;;;;;;5065578;28;20494;-77
2023/12/04 10:34:10;;;;;;;1.70;1.60;;;1.80;98.20;;;;;;5076517;28;20490;-76
2023/12/04 10:36:37;;;;;;;2.20;2.00;;;1.80;98.20;;;;;;5066503;28;20487;-77
2023/12/04 10:39:06;;;;;;;1.70;1.50;;;1.80;98.20;;;;;;5078470;28;20544;-78
2023/12/04 10:41:32;;;;;;;1.60;1.50;;;1.80;98.20;;;;;;5061919;28;20583;-77
2023/12/04 10:44:00;;;;;;;1.60;1.50;;;1.80;98.20;;;;;;5075974;28;20457;-78
2023/12/04 10:46:28;;;;;;;1.70;1.60;;;1.90;98.20;;;;;;5062863;28;20475;-77
2023/12/04 10:48:55;;;;;;;1.63;1.50;;;1.90;98.20;;;;;;5078224;28;20481;-77
2023/12/04 10:51:32;;;;;;;1.60;1.50;;;1.90;98.20;;;;;;5059403;28;20496;-76
2023/12/04 10:54:00;;;;;;;1.63;1.50;;;1.90;98.20;;;;;;5074458;28;20474;-77
2023/12/04 10:56:39;;;;;;;1.67;1.50;;;1.90;98.20;;;;;;5060088;28;21094;-77
2023/12/04 10:59:11;;;;;;;1.60;1.50;;;1.90;98.20;;;;;;5076565;28;20460;-78
2023/12/04 11:01:39;;;;;;;2.23;2.03;;;1.90;98.20;;;;;;5063135;28;20867;-78
2023/12/04 11:04:08;;;;;;;1.63;1.50;;;1.90;98.20;;;;;;5080058;28;20492;-76
2023/12/04 11:06:40;;;;;;;2.10;1.90;;;1.90;98.20;;;;;;5060621;28;20571;-77
2023/12/04 11:09:07;;;;;;;1.60;1.40;;;1.90;98.20;;;;;;5076756;28;20489;-78
2023/12/04 11:11:41;;;;;;;1.60;1.40;;;1.90;98.20;;;;;;5062228;28;20500;-78
2023/12/04 11:14:11;;;;;;;1.63;1.50;;;1.90;98.20;;;;;;5075745;28;20468;-78
2023/12/04 11:16:46;;;;;;;1.60;1.50;;;1.90;98.20;;;;;;5064579;28;20513;-77
2023/12/04 11:19:25;;;;;;;3.50;3.20;;;1.80;98.20;;;;;;5075657;28;20468;-78
2023/12/04 11:21:53;;;;;;;3.80;2.60;;;1.80;98.20;;;;;;5068348;28;20482;-75
2023/12/04 11:24:22;;;;;;;1.60;1.40;;;1.80;98.20;;;;;;5073975;28;20460;-75
2023/12/04 11:26:51;;;;;;;1.60;1.40;;;1.80;98.20;;;;;;5062719;28;20487;-77
2023/12/04 11:29:19;;;;;;;1.73;1.63;;;1.70;98.20;;;;;;5071171;28;20492;-78
2023/12/04 11:31:46;;;;;;;1.67;1.47;;;1.70;98.20;;;;;;5061267;28;20580;-77
2023/12/04 11:34:13;;;;;;;1.63;1.43;;;1.60;98.20;;;;;;5071187;28;20453;-76
2023/12/04 11:36:40;;;;;;;1.70;1.50;;;1.60;98.20;;;;;;5059472;28;20484;-76
2023/12/04 11:39:10;;;;;;;1.60;1.50;;;1.60;98.20;;;;;;5074809;28;20465;-78
2023/12/04 11:41:37;;;;;;;1.60;1.50;;;1.60;98.20;;;;;;5063641;28;20537;-76
2023/12/04 11:44:14;;;;;;;1.67;1.53;;;1.60;98.20;;;;;;5076784;28;20458;-76
2023/12/04 11:46:55;;;;;;;1.60;1.50;;;1.50;98.20;;;;;;5060268;28;20539;-77
2023/12/04 11:49:29;;;;;;;1.60;1.50;;;1.50;98.20;;;;;;5071020;28;20491;-76
2023/12/04 11:51:56;;;;;;;1.63;1.50;;;1.50;98.20;;;;;;5049475;28;20473;-77
2023/12/04 11:54:25;;;;;;;1.97;1.87;;;1.50;98.20;;;;;;5063230;28;20464;-76
2023/12/04 11:57:00;;;;;;;1.60;1.40;;;1.50;98.20;;;;;;5067108;28;21026;-78
2023/12/04 11:59:28;;;;;;;1.60;1.40;;;1.50;98.20;;;;;;5070631;28;20691;-76
2023/12/04 12:01:57;;;;;;;1.67;1.40;;;1.50;98.20;;;;;;5064719;28;20484;-78
2023/12/04 12:04:24;;;;;;;2.10;1.90;;;1.50;98.20;;;;;;5072188;28;20470;-77
2023/12/04 12:06:51;;;;;;;1.63;1.47;;;1.50;98.20;;;;;;5066928;28;20480;-77
2023/12/04 12:09:18;;;;;;;1.60;1.50;;;1.40;98.20;;;;;;5074540;28;20501;-79
2023/12/04 12:11:46;;;;;;;1.83;1.73;;;1.30;98.20;;;;;;5066927;28;20555;-76
2023/12/04 12:14:13;;;;;;;1.60;1.47;;;1.30;98.20;;;;;;5074602;28;20461;-77
2023/12/04 12:16:41;;;;;;;1.83;1.73;;;1.30;98.20;;;;;;5063202;28;21513;-76
2023/12/04 12:19:08;;;;;;;1.60;1.50;;;1.30;98.20;;;;;;5074139;28;20461;-79
2023/12/04 12:21:35;;;;;;;1.63;1.47;;;1.30;98.20;;;;;;5057990;28;20485;-79
2023/12/04 12:24:01;;;;;;;1.60;1.50;;;1.20;98.20;;;;;;5074178;28;20756;-78
2023/12/04 12:26:29;;;;;;;1.60;1.50;;;1.20;98.20;;;;;;5058599;28;21131;-77
2023/12/04 12:28:56;;;;;;;1.70;1.57;;;1.20;98.20;;;;;;5073953;28;20492;-77
2023/12/04 12:31:23;;;;;;;1.67;1.50;;;1.30;98.20;;;;;;5055309;28;20508;-77
2023/12/04 12:33:52;;;;;;;1.67;1.57;;;1.30;98.20;;;;;;5072700;28;20458;-76
2023/12/04 12:36:19;;;;;;;1.70;1.60;;;1.30;98.20;;;;;;5051873;28;20524;-76
2023/12/04 12:38:49;;;;;;;1.60;1.50;;;1.30;98.20;;;;;;5077734;28;20458;-76
2023/12/04 12:41:16;;;;;;;1.60;1.50;;;1.30;98.20;;;;;;5059550;28;20483;-76
2023/12/04 12:43:44;;;;;;;1.60;1.50;;;1.30;98.20;;;;;;5078982;28;20461;-77
2023/12/04 12:46:11;;;;;;;2.53;2.33;;;1.30;98.20;;;;;;5060320;28;20571;-79
2023/12/04 12:48:38;;;;;;;1.60;1.50;;;1.30;98.20;;;;;;5078036;28;20457;-78
2023/12/04 12:51:08;;;;;;;1.60;1.50;;;1.30;98.20;;;;;;5057410;28;20481;-77
2023/12/04 12:53:35;;;;;;;1.60;1.47;;;1.20;98.20;;;;;;5076124;28;20502;-78
2023/12/04 12:56:02;;;;;;;1.87;1.77;;;1.30;98.20;;;;;;5057611;28;20468;-78
2023/12/04 12:58:29;;;;;;;1.70;1.60;;;1.20;98.20;;;;;;5079852;28;20472;-79
2023/12/04 13:00:56;;;;;;;1.60;1.40;;;1.20;98.20;;;;;;5054913;28;20520;-78
2023/12/04 13:03:23;;;;;;;1.70;1.50;;;1.20;98.20;;;;;;5081890;28;20493;-79